sensor_id;sensor_type;location;lat;lon;timestamp;P1;durP1;ratioP1;P2;durP2;ratioP2
67757;SDS011;54562;47.620;18.786;2023-02-26T00:00:35;6.70;;;3.80;;
67757;SDS011;54562;47.620;18.786;2023-02-26T00:03:43;6.60;;;3.00;;
67757;SDS011;54562;47.620;18.786;2023-02-26T00:06:55;6.60;;;3.80;;
67757;SDS011;54562;47.620;18.786;2023-02-26T00:10:09;7.30;;;3.90;;
67757;SDS011;54562;47.620;18.786;2023-02-26T00:13:19;7.30;;;3.80;;
67757;SDS011;54562;47.620;18.786;2023-02-26T00:16:30;7.10;;;3.90;;
67757;SDS011;54562;47.620;18.786;2023-02-26T00:19:41;7.00;;;3.70;;
67757;SDS011;54562;47.620;18.786;2023-02-26T00:22:50;6.30;;;3.50;;
67757;SDS011;54562;47.620;18.786;2023-02-26T00:25:59;5.40;;;3.40;;
67757;SDS011;54562;47.620;18.786;2023-02-26T00:29:09;8.10;;;3.50;;
67757;SDS011;54562;47.620;18.786;2023-02-26T00:32:18;6.70;;;3.70;;
67757;SDS011;54562;47.620;18.786;2023-02-26T00:35:28;7.20;;;3.70;;
67757;SDS011;54562;47.620;18.786;2023-02-26T00:38:38;6.40;;;3.50;;
67757;SDS011;54562;47.620;18.786;2023-02-26T00:41:53;7.00;;;3.90;;
67757;SDS011;54562;47.620;18.786;2023-02-26T00:45:03;7.50;;;4.10;;
67757;SDS011;54562;47.620;18.786;2023-02-26T00:48:31;6.10;;;3.60;;
67757;SDS011;54562;47.620;18.786;2023-02-26T00:51:50;6.40;;;3.70;;
67757;SDS011;54562;47.620;18.786;2023-02-26T00:55:01;6.70;;;3.60;;
67757;SDS011;54562;47.620;18.786;2023-02-26T00:58:09;7.40;;;3.40;;
67757;SDS011;54562;47.620;18.786;2023-02-26T01:01:17;5.80;;;3.20;;
67757;SDS011;54562;47.620;18.786;2023-02-26T01:04:26;7.90;;;3.90;;
67757;SDS011;54562;47.620;18.786;2023-02-26T01:07:41;6.50;;;3.40;;
67757;SDS011;54562;47.620;18.786;2023-02-26T01:10:53;6.50;;;3.80;;
67757;SDS011;54562;47.620;18.786;2023-02-26T01:14:03;7.70;;;4.30;;
67757;SDS011;54562;47.620;18.786;2023-02-26T01:17:16;7.60;;;4.30;;
67757;SDS011;54562;47.620;18.786;2023-02-26T01:20:32;7.80;;;4.20;;
67757;SDS011;54562;47.620;18.786;2023-02-26T01:23:49;7.50;;;3.50;;
67757;SDS011;54562;47.620;18.786;2023-02-26T01:26:58;8.00;;;4.60;;
67757;SDS011;54562;47.620;18.786;2023-02-26T01:30:09;8.90;;;4.60;;
67757;SDS011;54562;47.620;18.786;2023-02-26T01:33:23;7.10;;;4.20;;
67757;SDS011;54562;47.620;18.786;2023-02-26T01:36:42;7.80;;;4.30;;
67757;SDS011;54562;47.620;18.786;2023-02-26T01:40:12;8.40;;;4.80;;
67757;SDS011;54562;47.620;18.786;2023-02-26T01:43:41;8.10;;;4.70;;
67757;SDS011;54562;47.620;18.786;2023-02-26T01:47:05;8.10;;;4.60;;
67757;SDS011;54562;47.620;18.786;2023-02-26T01:50:23;7.60;;;4.60;;
67757;SDS011;54562;47.620;18.786;2023-02-26T01:53:34;7.50;;;4.20;;
67757;SDS011;54562;47.620;18.786;2023-02-26T01:56:42;8.50;;;4.30;;
67757;SDS011;54562;47.620;18.786;2023-02-26T01:59:54;9.70;;;5.30;;
67757;SDS011;54562;47.620;18.786;2023-02-26T02:03:02;7.10;;;3.90;;
67757;SDS011;54562;47.620;18.786;2023-02-26T02:06:16;8.70;;;4.40;;
67757;SDS011;54562;47.620;18.786;2023-02-26T02:09:26;7.80;;;3.90;;
67757;SDS011;54562;47.620;18.786;2023-02-26T02:12:39;7.80;;;4.40;;
67757;SDS011;54562;47.620;18.786;2023-02-26T02:15:57;7.70;;;4.10;;
67757;SDS011;54562;47.620;18.786;2023-02-26T02:19:47;8.90;;;4.00;;
67757;SDS011;54562;47.620;18.786;2023-02-26T02:23:16;8.60;;;4.60;;
67757;SDS011;54562;47.620;18.786;2023-02-26T02:30:30;9.00;;;4.40;;
67757;SDS011;54562;47.620;18.786;2023-02-26T02:33:52;8.60;;;4.30;;
67757;SDS011;54562;47.620;18.786;2023-02-26T02:37:09;8.50;;;4.50;;
67757;SDS011;54562;47.620;18.786;2023-02-26T02:40:24;9.10;;;5.00;;
67757;SDS011;54562;47.620;18.786;2023-02-26T02:43:37;8.90;;;4.60;;
67757;SDS011;54562;47.620;18.786;2023-02-26T02:46:50;8.00;;;4.60;;
67757;SDS011;54562;47.620;18.786;2023-02-26T02:50:04;8.30;;;4.70;;
67757;SDS011;54562;47.620;18.786;2023-02-26T02:53:20;7.30;;;4.30;;
67757;SDS011;54562;47.620;18.786;2023-02-26T02:56:34;8.60;;;4.60;;
67757;SDS011;54562;47.620;18.786;2023-02-26T02:59:50;8.70;;;4.70;;
67757;SDS011;54562;47.620;18.786;2023-02-26T03:03:06;8.30;;;4.20;;
67757;SDS011;54562;47.620;18.786;2023-02-26T03:06:18;7.20;;;4.30;;
67757;SDS011;54562;47.620;18.786;2023-02-26T03:09:26;8.20;;;4.50;;
67757;SDS011;54562;47.620;18.786;2023-02-26T03:12:34;7.90;;;4.20;;
67757;SDS011;54562;47.620;18.786;2023-02-26T03:15:51;8.70;;;4.70;;
67757;SDS011;54562;47.620;18.786;2023-02-26T03:19:13;6.90;;;4.00;;
67757;SDS011;54562;47.620;18.786;2023-02-26T03:22:33;8.00;;;4.70;;
67757;SDS011;54562;47.620;18.786;2023-02-26T03:25:48;7.80;;;4.30;;
67757;SDS011;54562;47.620;18.786;2023-02-26T03:29:04;7.70;;;4.30;;
67757;SDS011;54562;47.620;18.786;2023-02-26T03:32:25;7.40;;;4.20;;
67757;SDS011;54562;47.620;18.786;2023-02-26T03:35:46;8.00;;;4.30;;
67757;SDS011;54562;47.620;18.786;2023-02-26T03:39:02;9.20;;;4.20;;
67757;SDS011;54562;47.620;18.786;2023-02-26T03:42:17;7.80;;;4.40;;
67757;SDS011;54562;47.620;18.786;2023-02-26T03:45:32;7.50;;;4.50;;
67757;SDS011;54562;47.620;18.786;2023-02-26T03:48:43;7.40;;;3.90;;
67757;SDS011;54562;47.620;18.786;2023-02-26T03:51:55;7.20;;;4.00;;
67757;SDS011;54562;47.620;18.786;2023-02-26T03:55:07;7.20;;;4.40;;
67757;SDS011;54562;47.620;18.786;2023-02-26T03:58:18;7.90;;;4.80;;
67757;SDS011;54562;47.620;18.786;2023-02-26T04:01:30;7.40;;;4.10;;
67757;SDS011;54562;47.620;18.786;2023-02-26T04:04:48;7.00;;;4.20;;
67757;SDS011;54562;47.620;18.786;2023-02-26T04:07:59;7.40;;;4.60;;
67757;SDS011;54562;47.620;18.786;2023-02-26T04:11:09;8.90;;;5.00;;
67757;SDS011;54562;47.620;18.786;2023-02-26T04:14:21;9.40;;;5.20;;
67757;SDS011;54562;47.620;18.786;2023-02-26T04:17:29;10.60;;;5.30;;
67757;SDS011;54562;47.620;18.786;2023-02-26T04:20:37;7.60;;;4.50;;
67757;SDS011;54562;47.620;18.786;2023-02-26T04:23:45;7.30;;;4.50;;
67757;SDS011;54562;47.620;18.786;2023-02-26T04:26:53;8.00;;;4.30;;
67757;SDS011;54562;47.620;18.786;2023-02-26T04:30:01;7.70;;;4.40;;
67757;SDS011;54562;47.620;18.786;2023-02-26T04:33:11;8.80;;;4.70;;
67757;SDS011;54562;47.620;18.786;2023-02-26T04:36:19;7.20;;;4.10;;
67757;SDS011;54562;47.620;18.786;2023-02-26T04:39:28;8.30;;;4.50;;
67757;SDS011;54562;47.620;18.786;2023-02-26T04:42:36;8.00;;;4.40;;
67757;SDS011;54562;47.620;18.786;2023-02-26T04:45:45;8.00;;;4.60;;
67757;SDS011;54562;47.620;18.786;2023-02-26T04:48:53;7.80;;;4.20;;
67757;SDS011;54562;47.620;18.786;2023-02-26T04:52:02;7.30;;;4.40;;
67757;SDS011;54562;47.620;18.786;2023-02-26T04:55:10;8.20;;;4.40;;
67757;SDS011;54562;47.620;18.786;2023-02-26T04:58:18;8.40;;;4.40;;
67757;SDS011;54562;47.620;18.786;2023-02-26T05:01:27;7.80;;;4.10;;
67757;SDS011;54562;47.620;18.786;2023-02-26T05:04:35;8.50;;;4.80;;
67757;SDS011;54562;47.620;18.786;2023-02-26T05:07:43;7.80;;;4.50;;
67757;SDS011;54562;47.620;18.786;2023-02-26T05:10:52;7.50;;;4.40;;
67757;SDS011;54562;47.620;18.786;2023-02-26T05:14:01;8.90;;;4.60;;
67757;SDS011;54562;47.620;18.786;2023-02-26T05:17:09;8.20;;;4.80;;
67757;SDS011;54562;47.620;18.786;2023-02-26T05:20:18;8.10;;;4.80;;
67757;SDS011;54562;47.620;18.786;2023-02-26T05:23:26;8.50;;;5.20;;
67757;SDS011;54562;47.620;18.786;2023-02-26T05:26:34;8.30;;;4.70;;
67757;SDS011;54562;47.620;18.786;2023-02-26T05:29:42;8.50;;;3.90;;
67757;SDS011;54562;47.620;18.786;2023-02-26T05:32:51;9.50;;;5.00;;
67757;SDS011;54562;47.620;18.786;2023-02-26T05:35:59;7.40;;;4.60;;
67757;SDS011;54562;47.620;18.786;2023-02-26T05:39:07;8.30;;;4.60;;
67757;SDS011;54562;47.620;18.786;2023-02-26T05:42:16;8.50;;;5.00;;
67757;SDS011;54562;47.620;18.786;2023-02-26T05:45:24;7.70;;;4.70;;
67757;SDS011;54562;47.620;18.786;2023-02-26T05:48:34;8.60;;;4.50;;
67757;SDS011;54562;47.620;18.786;2023-02-26T05:51:42;7.50;;;4.80;;
67757;SDS011;54562;47.620;18.786;2023-02-26T05:54:50;8.60;;;4.80;;
67757;SDS011;54562;47.620;18.786;2023-02-26T05:57:59;8.50;;;4.80;;
67757;SDS011;54562;47.620;18.786;2023-02-26T06:01:07;8.40;;;4.70;;
67757;SDS011;54562;47.620;18.786;2023-02-26T06:04:15;8.90;;;4.60;;
67757;SDS011;54562;47.620;18.786;2023-02-26T06:07:23;7.70;;;4.30;;
67757;SDS011;54562;47.620;18.786;2023-02-26T06:10:31;7.70;;;4.20;;
67757;SDS011;54562;47.620;18.786;2023-02-26T06:13:39;8.10;;;5.20;;
67757;SDS011;54562;47.620;18.786;2023-02-26T06:16:47;7.50;;;4.30;;
67757;SDS011;54562;47.620;18.786;2023-02-26T06:19:56;9.30;;;5.50;;
67757;SDS011;54562;47.620;18.786;2023-02-26T06:23:04;11.00;;;5.40;;
67757;SDS011;54562;47.620;18.786;2023-02-26T06:26:12;11.50;;;5.50;;
67757;SDS011;54562;47.620;18.786;2023-02-26T06:29:20;9.20;;;4.90;;
67757;SDS011;54562;47.620;18.786;2023-02-26T06:32:30;8.30;;;4.80;;
67757;SDS011;54562;47.620;18.786;2023-02-26T06:35:38;8.20;;;4.10;;
67757;SDS011;54562;47.620;18.786;2023-02-26T06:38:46;9.40;;;5.50;;
67757;SDS011;54562;47.620;18.786;2023-02-26T06:41:54;8.50;;;5.10;;
67757;SDS011;54562;47.620;18.786;2023-02-26T06:45:03;9.10;;;4.80;;
67757;SDS011;54562;47.620;18.786;2023-02-26T06:48:12;8.30;;;4.90;;
67757;SDS011;54562;47.620;18.786;2023-02-26T06:51:21;8.70;;;4.90;;
67757;SDS011;54562;47.620;18.786;2023-02-26T06:54:29;8.90;;;4.80;;
67757;SDS011;54562;47.620;18.786;2023-02-26T06:57:37;10.10;;;4.90;;
67757;SDS011;54562;47.620;18.786;2023-02-26T07:00:45;8.30;;;4.80;;
67757;SDS011;54562;47.620;18.786;2023-02-26T07:03:54;8.80;;;4.70;;
67757;SDS011;54562;47.620;18.786;2023-02-26T07:07:02;8.70;;;5.00;;
67757;SDS011;54562;47.620;18.786;2023-02-26T07:10:13;7.30;;;4.20;;
67757;SDS011;54562;47.620;18.786;2023-02-26T07:13:21;8.20;;;5.00;;
67757;SDS011;54562;47.620;18.786;2023-02-26T07:16:29;9.50;;;4.90;;
67757;SDS011;54562;47.620;18.786;2023-02-26T07:19:37;7.40;;;4.60;;
67757;SDS011;54562;47.620;18.786;2023-02-26T07:22:45;8.50;;;5.00;;
67757;SDS011;54562;47.620;18.786;2023-02-26T07:25:53;7.80;;;4.60;;
67757;SDS011;54562;47.620;18.786;2023-02-26T07:29:02;7.70;;;4.70;;
67757;SDS011;54562;47.620;18.786;2023-02-26T07:32:11;8.90;;;5.30;;
67757;SDS011;54562;47.620;18.786;2023-02-26T07:35:19;7.80;;;4.60;;
67757;SDS011;54562;47.620;18.786;2023-02-26T07:38:27;8.10;;;4.70;;
67757;SDS011;54562;47.620;18.786;2023-02-26T07:41:36;7.40;;;4.40;;
67757;SDS011;54562;47.620;18.786;2023-02-26T07:44:44;7.80;;;4.80;;
67757;SDS011;54562;47.620;18.786;2023-02-26T07:47:52;7.90;;;4.80;;
67757;SDS011;54562;47.620;18.786;2023-02-26T07:51:00;8.00;;;4.70;;
67757;SDS011;54562;47.620;18.786;2023-02-26T07:54:09;7.70;;;4.70;;
67757;SDS011;54562;47.620;18.786;2023-02-26T07:57:17;6.80;;;3.20;;
67757;SDS011;54562;47.620;18.786;2023-02-26T08:00:26;8.00;;;4.60;;
67757;SDS011;54562;47.620;18.786;2023-02-26T08:03:34;7.50;;;4.40;;
67757;SDS011;54562;47.620;18.786;2023-02-26T08:06:42;6.70;;;3.90;;
67757;SDS011;54562;47.620;18.786;2023-02-26T08:09:50;7.50;;;4.30;;
67757;SDS011;54562;47.620;18.786;2023-02-26T08:12:58;7.40;;;4.40;;
67757;SDS011;54562;47.620;18.786;2023-02-26T08:16:07;7.70;;;3.90;;
67757;SDS011;54562;47.620;18.786;2023-02-26T08:19:15;7.30;;;4.30;;
67757;SDS011;54562;47.620;18.786;2023-02-26T08:22:23;8.50;;;4.50;;
67757;SDS011;54562;47.620;18.786;2023-02-26T08:25:31;7.10;;;3.90;;
67757;SDS011;54562;47.620;18.786;2023-02-26T08:28:39;7.80;;;4.60;;
67757;SDS011;54562;47.620;18.786;2023-02-26T08:31:47;7.60;;;4.10;;
67757;SDS011;54562;47.620;18.786;2023-02-26T08:34:55;6.90;;;4.10;;
67757;SDS011;54562;47.620;18.786;2023-02-26T08:38:03;6.80;;;3.80;;
67757;SDS011;54562;47.620;18.786;2023-02-26T08:41:12;8.00;;;4.80;;
67757;SDS011;54562;47.620;18.786;2023-02-26T08:44:21;6.00;;;3.30;;
67757;SDS011;54562;47.620;18.786;2023-02-26T08:47:29;6.20;;;3.40;;
67757;SDS011;54562;47.620;18.786;2023-02-26T08:50:43;7.60;;;4.10;;
67757;SDS011;54562;47.620;18.786;2023-02-26T08:53:51;7.10;;;4.00;;
67757;SDS011;54562;47.620;18.786;2023-02-26T08:57:00;7.80;;;4.60;;
67757;SDS011;54562;47.620;18.786;2023-02-26T09:00:11;8.60;;;5.40;;
67757;SDS011;54562;47.620;18.786;2023-02-26T09:03:22;6.50;;;3.50;;
67757;SDS011;54562;47.620;18.786;2023-02-26T09:06:30;5.60;;;3.00;;
67757;SDS011;54562;47.620;18.786;2023-02-26T09:09:39;7.60;;;3.80;;
67757;SDS011;54562;47.620;18.786;2023-02-26T09:12:47;7.80;;;3.90;;
67757;SDS011;54562;47.620;18.786;2023-02-26T09:15:55;7.70;;;4.00;;
67757;SDS011;54562;47.620;18.786;2023-02-26T09:19:04;8.00;;;4.50;;
67757;SDS011;54562;47.620;18.786;2023-02-26T09:22:13;7.50;;;3.60;;
67757;SDS011;54562;47.620;18.786;2023-02-26T09:25:21;7.70;;;4.20;;
67757;SDS011;54562;47.620;18.786;2023-02-26T09:28:29;7.30;;;3.80;;
67757;SDS011;54562;47.620;18.786;2023-02-26T09:31:37;7.10;;;4.10;;
67757;SDS011;54562;47.620;18.786;2023-02-26T09:34:46;7.70;;;4.40;;
67757;SDS011;54562;47.620;18.786;2023-02-26T09:37:54;7.70;;;3.90;;
67757;SDS011;54562;47.620;18.786;2023-02-26T09:41:06;8.10;;;4.40;;
67757;SDS011;54562;47.620;18.786;2023-02-26T09:44:23;8.40;;;4.00;;
67757;SDS011;54562;47.620;18.786;2023-02-26T09:47:37;7.90;;;4.20;;
67757;SDS011;54562;47.620;18.786;2023-02-26T09:50:53;7.40;;;3.80;;
67757;SDS011;54562;47.620;18.786;2023-02-26T09:54:07;9.20;;;4.20;;
67757;SDS011;54562;47.620;18.786;2023-02-26T09:57:28;8.30;;;4.20;;
67757;SDS011;54562;47.620;18.786;2023-02-26T10:00:40;7.20;;;3.70;;
67757;SDS011;54562;47.620;18.786;2023-02-26T10:04:06;8.50;;;4.20;;
67757;SDS011;54562;47.620;18.786;2023-02-26T10:07:27;7.00;;;3.90;;
67757;SDS011;54562;47.620;18.786;2023-02-26T10:10:50;6.10;;;3.10;;
67757;SDS011;54562;47.620;18.786;2023-02-26T10:18:07;7.30;;;4.00;;
67757;SDS011;54562;47.620;18.786;2023-02-26T10:21:23;8.80;;;4.30;;
67757;SDS011;54562;47.620;18.786;2023-02-26T10:24:39;9.70;;;4.10;;
67757;SDS011;54562;47.620;18.786;2023-02-26T10:27:57;8.50;;;4.20;;
67757;SDS011;54562;47.620;18.786;2023-02-26T10:31:21;6.90;;;3.50;;
67757;SDS011;54562;47.620;18.786;2023-02-26T10:34:36;6.60;;;3.20;;
67757;SDS011;54562;47.620;18.786;2023-02-26T10:37:52;7.10;;;3.80;;
67757;SDS011;54562;47.620;18.786;2023-02-26T10:41:07;6.50;;;3.30;;
67757;SDS011;54562;47.620;18.786;2023-02-26T10:44:23;6.70;;;3.70;;
67757;SDS011;54562;47.620;18.786;2023-02-26T10:47:43;6.60;;;3.60;;
67757;SDS011;54562;47.620;18.786;2023-02-26T10:50:59;7.20;;;3.90;;
67757;SDS011;54562;47.620;18.786;2023-02-26T10:54:20;7.50;;;3.80;;
67757;SDS011;54562;47.620;18.786;2023-02-26T10:57:36;8.70;;;3.70;;
67757;SDS011;54562;47.620;18.786;2023-02-26T11:00:51;7.00;;;3.70;;
67757;SDS011;54562;47.620;18.786;2023-02-26T11:04:02;7.10;;;3.40;;
67757;SDS011;54562;47.620;18.786;2023-02-26T11:07:14;6.10;;;3.30;;
67757;SDS011;54562;47.620;18.786;2023-02-26T11:10:24;7.60;;;3.30;;
67757;SDS011;54562;47.620;18.786;2023-02-26T11:13:40;7.00;;;3.50;;
67757;SDS011;54562;47.620;18.786;2023-02-26T11:16:51;6.60;;;3.50;;
67757;SDS011;54562;47.620;18.786;2023-02-26T11:20:04;6.80;;;3.30;;
67757;SDS011;54562;47.620;18.786;2023-02-26T11:23:23;5.90;;;2.90;;
67757;SDS011;54562;47.620;18.786;2023-02-26T11:26:36;7.60;;;3.20;;
67757;SDS011;54562;47.620;18.786;2023-02-26T11:29:53;5.70;;;2.80;;
67757;SDS011;54562;47.620;18.786;2023-02-26T11:33:15;7.00;;;3.10;;
67757;SDS011;54562;47.620;18.786;2023-02-26T11:36:30;5.70;;;2.70;;
67757;SDS011;54562;47.620;18.786;2023-02-26T11:39:39;5.60;;;2.70;;
67757;SDS011;54562;47.620;18.786;2023-02-26T11:42:51;5.20;;;2.80;;
67757;SDS011;54562;47.620;18.786;2023-02-26T11:46:02;5.50;;;2.80;;
67757;SDS011;54562;47.620;18.786;2023-02-26T11:49:13;5.10;;;2.60;;
67757;SDS011;54562;47.620;18.786;2023-02-26T11:52:28;5.50;;;2.80;;
67757;SDS011;54562;47.620;18.786;2023-02-26T11:55:42;5.30;;;2.40;;
67757;SDS011;54562;47.620;18.786;2023-02-26T11:58:54;5.80;;;3.00;;
67757;SDS011;54562;47.620;18.786;2023-02-26T12:02:11;5.80;;;2.80;;
67757;SDS011;54562;47.620;18.786;2023-02-26T12:05:24;5.20;;;2.60;;
67757;SDS011;54562;47.620;18.786;2023-02-26T12:08:34;8.20;;;3.00;;
67757;SDS011;54562;47.620;18.786;2023-02-26T12:12:06;6.70;;;3.20;;
67757;SDS011;54562;47.620;18.786;2023-02-26T12:15:33;5.90;;;3.10;;
67757;SDS011;54562;47.620;18.786;2023-02-26T12:19:02;6.90;;;3.30;;
67757;SDS011;54562;47.620;18.786;2023-02-26T12:29:35;6.00;;;3.20;;
67757;SDS011;54562;47.620;18.786;2023-02-26T12:36:34;6.30;;;3.30;;
67757;SDS011;54562;47.620;18.786;2023-02-26T12:40:01;7.00;;;3.60;;
67757;SDS011;54562;47.620;18.786;2023-02-26T12:43:22;6.10;;;3.20;;
67757;SDS011;54562;47.620;18.786;2023-02-26T12:46:48;6.70;;;3.70;;
67757;SDS011;54562;47.620;18.786;2023-02-26T12:50:33;6.70;;;3.70;;
67757;SDS011;54562;47.620;18.786;2023-02-26T12:57:43;7.60;;;3.60;;
67757;SDS011;54562;47.620;18.786;2023-02-26T13:01:10;6.50;;;3.40;;
67757;SDS011;54562;47.620;18.786;2023-02-26T13:04:39;6.70;;;3.50;;
67757;SDS011;54562;47.620;18.786;2023-02-26T13:08:08;7.70;;;3.70;;
67757;SDS011;54562;47.620;18.786;2023-02-26T13:11:27;7.10;;;3.90;;
67757;SDS011;54562;47.620;18.786;2023-02-26T13:14:51;7.30;;;3.70;;
67757;SDS011;54562;47.620;18.786;2023-02-26T13:21:21;7.20;;;3.40;;
67757;SDS011;54562;47.620;18.786;2023-02-26T13:24:35;6.60;;;3.40;;
67757;SDS011;54562;47.620;18.786;2023-02-26T13:27:47;6.50;;;3.30;;
67757;SDS011;54562;47.620;18.786;2023-02-26T13:30:59;6.80;;;3.60;;
67757;SDS011;54562;47.620;18.786;2023-02-26T13:34:12;6.80;;;3.60;;
67757;SDS011;54562;47.620;18.786;2023-02-26T13:37:28;6.90;;;3.50;;
67757;SDS011;54562;47.620;18.786;2023-02-26T13:40:48;6.90;;;3.40;;
67757;SDS011;54562;47.620;18.786;2023-02-26T13:44:14;6.70;;;3.30;;
67757;SDS011;54562;47.620;18.786;2023-02-26T13:47:45;6.80;;;3.50;;
67757;SDS011;54562;47.620;18.786;2023-02-26T13:51:06;6.40;;;3.40;;
67757;SDS011;54562;47.620;18.786;2023-02-26T13:57:52;6.50;;;3.50;;
67757;SDS011;54562;47.620;18.786;2023-02-26T14:01:06;8.40;;;4.10;;
67757;SDS011;54562;47.620;18.786;2023-02-26T14:04:25;7.10;;;3.80;;
67757;SDS011;54562;47.620;18.786;2023-02-26T14:07:51;7.40;;;4.30;;
67757;SDS011;54562;47.620;18.786;2023-02-26T14:18:36;7.90;;;4.20;;
67757;SDS011;54562;47.620;18.786;2023-02-26T14:21:56;8.30;;;4.60;;
67757;SDS011;54562;47.620;18.786;2023-02-26T14:25:26;8.20;;;5.00;;
67757;SDS011;54562;47.620;18.786;2023-02-26T14:28:55;8.60;;;4.70;;
67757;SDS011;54562;47.620;18.786;2023-02-26T14:32:21;8.70;;;5.10;;
67757;SDS011;54562;47.620;18.786;2023-02-26T14:35:38;9.20;;;4.90;;
67757;SDS011;54562;47.620;18.786;2023-02-26T14:38:49;8.40;;;4.80;;
67757;SDS011;54562;47.620;18.786;2023-02-26T14:42:01;7.80;;;4.70;;
67757;SDS011;54562;47.620;18.786;2023-02-26T14:45:23;8.20;;;4.60;;
67757;SDS011;54562;47.620;18.786;2023-02-26T14:48:35;9.50;;;4.50;;
67757;SDS011;54562;47.620;18.786;2023-02-26T14:51:50;7.10;;;4.30;;
67757;SDS011;54562;47.620;18.786;2023-02-26T14:55:26;7.60;;;4.40;;
67757;SDS011;54562;47.620;18.786;2023-02-26T14:59:01;8.40;;;5.00;;
67757;SDS011;54562;47.620;18.786;2023-02-26T15:02:27;8.60;;;4.50;;
67757;SDS011;54562;47.620;18.786;2023-02-26T15:05:46;9.00;;;4.70;;
67757;SDS011;54562;47.620;18.786;2023-02-26T15:09:16;7.80;;;4.40;;
67757;SDS011;54562;47.620;18.786;2023-02-26T15:12:37;8.00;;;4.20;;
67757;SDS011;54562;47.620;18.786;2023-02-26T15:15:57;9.30;;;4.90;;
67757;SDS011;54562;47.620;18.786;2023-02-26T15:19:28;8.00;;;4.40;;
67757;SDS011;54562;47.620;18.786;2023-02-26T15:22:59;9.50;;;4.50;;
67757;SDS011;54562;47.620;18.786;2023-02-26T15:26:21;9.20;;;5.30;;
67757;SDS011;54562;47.620;18.786;2023-02-26T15:29:33;8.00;;;3.90;;
67757;SDS011;54562;47.620;18.786;2023-02-26T15:32:44;7.60;;;4.30;;
67757;SDS011;54562;47.620;18.786;2023-02-26T15:35:56;7.10;;;4.20;;
67757;SDS011;54562;47.620;18.786;2023-02-26T15:39:07;8.80;;;4.30;;
67757;SDS011;54562;47.620;18.786;2023-02-26T15:42:15;6.90;;;3.80;;
67757;SDS011;54562;47.620;18.786;2023-02-26T15:45:27;7.50;;;3.80;;
67757;SDS011;54562;47.620;18.786;2023-02-26T15:48:44;7.70;;;3.90;;
67757;SDS011;54562;47.620;18.786;2023-02-26T15:51:53;7.30;;;4.20;;
67757;SDS011;54562;47.620;18.786;2023-02-26T15:55:05;7.70;;;4.20;;
67757;SDS011;54562;47.620;18.786;2023-02-26T15:58:22;9.10;;;4.30;;
67757;SDS011;54562;47.620;18.786;2023-02-26T16:01:42;7.70;;;3.90;;
67757;SDS011;54562;47.620;18.786;2023-02-26T16:04:51;7.80;;;4.20;;
67757;SDS011;54562;47.620;18.786;2023-02-26T16:07:59;6.80;;;3.80;;
67757;SDS011;54562;47.620;18.786;2023-02-26T16:11:08;7.80;;;4.10;;
67757;SDS011;54562;47.620;18.786;2023-02-26T16:14:20;7.60;;;3.80;;
67757;SDS011;54562;47.620;18.786;2023-02-26T16:17:33;7.00;;;3.90;;
67757;SDS011;54562;47.620;18.786;2023-02-26T16:20:46;7.20;;;3.90;;
67757;SDS011;54562;47.620;18.786;2023-02-26T16:23:58;7.70;;;4.20;;
67757;SDS011;54562;47.620;18.786;2023-02-26T16:27:15;7.20;;;4.00;;
67757;SDS011;54562;47.620;18.786;2023-02-26T16:30:26;7.30;;;3.60;;
67757;SDS011;54562;47.620;18.786;2023-02-26T16:33:38;7.30;;;3.40;;
67757;SDS011;54562;47.620;18.786;2023-02-26T16:36:55;7.20;;;3.60;;
67757;SDS011;54562;47.620;18.786;2023-02-26T16:40:16;7.20;;;3.50;;
67757;SDS011;54562;47.620;18.786;2023-02-26T16:43:35;6.80;;;3.90;;
67757;SDS011;54562;47.620;18.786;2023-02-26T16:46:55;8.00;;;4.10;;
67757;SDS011;54562;47.620;18.786;2023-02-26T16:50:15;7.60;;;4.00;;
67757;SDS011;54562;47.620;18.786;2023-02-26T16:53:34;9.70;;;4.60;;
67757;SDS011;54562;47.620;18.786;2023-02-26T16:56:51;7.60;;;4.20;;
67757;SDS011;54562;47.620;18.786;2023-02-26T17:00:05;8.00;;;4.10;;
67757;SDS011;54562;47.620;18.786;2023-02-26T17:03:23;8.30;;;4.20;;
67757;SDS011;54562;47.620;18.786;2023-02-26T17:06:38;9.20;;;4.80;;
67757;SDS011;54562;47.620;18.786;2023-02-26T17:09:49;9.40;;;5.30;;
67757;SDS011;54562;47.620;18.786;2023-02-26T17:13:13;10.70;;;4.70;;
67757;SDS011;54562;47.620;18.786;2023-02-26T17:16:23;9.60;;;4.70;;
67757;SDS011;54562;47.620;18.786;2023-02-26T17:19:31;8.50;;;4.20;;
67757;SDS011;54562;47.620;18.786;2023-02-26T17:22:40;7.70;;;4.10;;
67757;SDS011;54562;47.620;18.786;2023-02-26T17:25:52;7.60;;;3.80;;
67757;SDS011;54562;47.620;18.786;2023-02-26T17:29:07;7.60;;;3.90;;
67757;SDS011;54562;47.620;18.786;2023-02-26T17:32:23;6.80;;;3.70;;
67757;SDS011;54562;47.620;18.786;2023-02-26T17:35:35;7.10;;;3.80;;
67757;SDS011;54562;47.620;18.786;2023-02-26T17:38:43;8.50;;;4.40;;
67757;SDS011;54562;47.620;18.786;2023-02-26T17:41:52;7.30;;;4.20;;
67757;SDS011;54562;47.620;18.786;2023-02-26T17:45:00;7.60;;;4.10;;
67757;SDS011;54562;47.620;18.786;2023-02-26T17:48:09;7.80;;;4.50;;
67757;SDS011;54562;47.620;18.786;2023-02-26T17:51:18;7.30;;;4.30;;
67757;SDS011;54562;47.620;18.786;2023-02-26T17:54:27;8.70;;;4.30;;
67757;SDS011;54562;47.620;18.786;2023-02-26T17:57:35;7.20;;;3.70;;
67757;SDS011;54562;47.620;18.786;2023-02-26T18:00:43;7.50;;;4.00;;
67757;SDS011;54562;47.620;18.786;2023-02-26T18:03:57;7.80;;;4.20;;
67757;SDS011;54562;47.620;18.786;2023-02-26T18:07:09;7.30;;;4.10;;
67757;SDS011;54562;47.620;18.786;2023-02-26T18:10:23;8.30;;;4.60;;
67757;SDS011;54562;47.620;18.786;2023-02-26T18:13:31;9.00;;;4.30;;
67757;SDS011;54562;47.620;18.786;2023-02-26T18:16:41;10.00;;;4.80;;
67757;SDS011;54562;47.620;18.786;2023-02-26T18:19:50;8.40;;;4.60;;
67757;SDS011;54562;47.620;18.786;2023-02-26T18:22:59;8.80;;;4.80;;
67757;SDS011;54562;47.620;18.786;2023-02-26T18:26:08;9.20;;;4.70;;
67757;SDS011;54562;47.620;18.786;2023-02-26T18:29:17;9.40;;;4.60;;
67757;SDS011;54562;47.620;18.786;2023-02-26T18:32:25;8.20;;;4.40;;
67757;SDS011;54562;47.620;18.786;2023-02-26T18:35:33;8.40;;;4.40;;
67757;SDS011;54562;47.620;18.786;2023-02-26T18:38:42;8.40;;;4.60;;
67757;SDS011;54562;47.620;18.786;2023-02-26T18:41:50;7.90;;;4.60;;
67757;SDS011;54562;47.620;18.786;2023-02-26T18:44:58;7.10;;;4.30;;
67757;SDS011;54562;47.620;18.786;2023-02-26T18:48:06;9.40;;;4.60;;
67757;SDS011;54562;47.620;18.786;2023-02-26T18:51:15;7.60;;;4.20;;
67757;SDS011;54562;47.620;18.786;2023-02-26T18:54:24;9.10;;;4.50;;
67757;SDS011;54562;47.620;18.786;2023-02-26T18:57:32;7.60;;;4.30;;
67757;SDS011;54562;47.620;18.786;2023-02-26T19:00:40;8.00;;;4.10;;
67757;SDS011;54562;47.620;18.786;2023-02-26T19:03:48;9.00;;;4.60;;
67757;SDS011;54562;47.620;18.786;2023-02-26T19:06:57;6.90;;;4.10;;
67757;SDS011;54562;47.620;18.786;2023-02-26T19:10:07;8.60;;;4.30;;
67757;SDS011;54562;47.620;18.786;2023-02-26T19:13:18;7.80;;;4.30;;
67757;SDS011;54562;47.620;18.786;2023-02-26T19:16:27;8.90;;;4.50;;
67757;SDS011;54562;47.620;18.786;2023-02-26T19:19:39;7.70;;;4.50;;
67757;SDS011;54562;47.620;18.786;2023-02-26T19:22:47;8.60;;;4.30;;
67757;SDS011;54562;47.620;18.786;2023-02-26T19:25:55;8.80;;;4.50;;
67757;SDS011;54562;47.620;18.786;2023-02-26T19:29:04;8.10;;;4.30;;
67757;SDS011;54562;47.620;18.786;2023-02-26T19:32:13;7.90;;;4.30;;
67757;SDS011;54562;47.620;18.786;2023-02-26T19:35:22;9.30;;;4.60;;
67757;SDS011;54562;47.620;18.786;2023-02-26T19:38:31;8.20;;;4.20;;
67757;SDS011;54562;47.620;18.786;2023-02-26T19:41:40;9.10;;;4.40;;